createdAt,value
2022-10-08T00:01:47.876Z,9.90
2022-10-08T00:04:16.635Z,9.90
2022-10-08T00:06:45.264Z,9.90
2022-10-08T00:09:15.258Z,10.00
2022-10-08T00:11:44.251Z,9.90
2022-10-08T00:14:12.816Z,9.90
2022-10-08T00:16:42.621Z,9.90
2022-10-08T00:19:14.237Z,9.90
2022-10-08T00:21:44.557Z,9.90
2022-10-08T00:24:17.180Z,9.90
2022-10-08T00:26:46.377Z,9.90
2022-10-08T00:29:17.264Z,9.90
2022-10-08T00:31:47.612Z,9.90
2022-10-08T00:34:19.307Z,9.90
2022-10-08T00:36:52.120Z,9.90
2022-10-08T00:39:24.155Z,9.90
2022-10-08T00:41:55.230Z,9.90
2022-10-08T00:44:51.638Z,9.80
2022-10-08T00:47:26.029Z,9.80
2022-10-08T00:49:58.889Z,9.80
2022-10-08T00:52:29.843Z,9.70
2022-10-08T00:54:59.934Z,9.70
2022-10-08T00:57:29.100Z,9.70
2022-10-08T00:59:57.998Z,9.70
2022-10-08T01:02:26.798Z,9.70
2022-10-08T01:04:55.440Z,9.60
2022-10-08T01:07:27.806Z,9.60
2022-10-08T01:10:06.230Z,9.60
2022-10-08T01:12:45.250Z,9.60
2022-10-08T01:15:23.622Z,9.60
2022-10-08T01:18:00.460Z,9.70
2022-10-08T01:20:40.104Z,9.80
2022-10-08T01:24:05.726Z,9.90
2022-10-08T01:26:50.520Z,9.90
2022-10-08T01:29:23.733Z,10.00
2022-10-08T01:31:55.609Z,10.00
2022-10-08T01:34:31.887Z,10.00
2022-10-08T01:37:02.716Z,9.90
2022-10-08T01:39:35.604Z,9.90
2022-10-08T01:42:06.024Z,9.90
2022-10-08T01:44:40.731Z,9.90
2022-10-08T01:47:12.535Z,9.90
2022-10-08T01:49:45.566Z,9.80
2022-10-08T01:52:21.814Z,9.70
2022-10-08T01:54:53.960Z,9.70
2022-10-08T01:57:24.502Z,9.70
2022-10-08T02:00:00.261Z,9.60
2022-10-08T02:02:29.121Z,9.60
2022-10-08T02:04:57.880Z,9.60
2022-10-08T02:07:29.426Z,9.60
2022-10-08T02:10:06.706Z,9.60
2022-10-08T02:12:35.351Z,9.60
2022-10-08T02:15:08.209Z,9.70
2022-10-08T02:17:42.202Z,9.70
2022-10-08T02:20:19.618Z,9.60
2022-10-08T02:22:55.180Z,9.60
2022-10-08T02:25:30.736Z,9.60
2022-10-08T02:28:09.662Z,9.60
2022-10-08T02:30:47.962Z,9.60
2022-10-08T02:33:22.617Z,9.70
2022-10-08T02:35:55.512Z,9.80
2022-10-08T02:38:28.065Z,9.80
2022-10-08T02:41:00.398Z,9.80
2022-10-08T02:43:33.740Z,9.80
2022-10-08T02:46:09.924Z,9.80
2022-10-08T02:48:42.609Z,9.80
2022-10-08T02:51:15.844Z,9.90
2022-10-08T02:53:45.805Z,9.90
2022-10-08T02:56:20.070Z,10.00
2022-10-08T02:58:49.365Z,9.90
2022-10-08T03:01:26.876Z,9.90
2022-10-08T03:04:02.325Z,9.90
2022-10-08T03:06:32.063Z,9.80
2022-10-08T03:09:02.586Z,9.90
2022-10-08T03:11:32.384Z,10.00
2022-10-08T03:14:04.523Z,10.10
2022-10-08T03:16:39.846Z,10.00
2022-10-08T03:19:10.580Z,10.00
2022-10-08T03:21:40.694Z,9.90
2022-10-08T03:24:09.936Z,9.90
2022-10-08T03:26:39.148Z,9.70
2022-10-08T03:29:08.519Z,9.70
2022-10-08T03:31:38.703Z,9.60
2022-10-08T03:34:07.344Z,9.60
2022-10-08T03:36:35.931Z,9.50
2022-10-08T03:39:04.643Z,9.50
2022-10-08T03:41:33.523Z,9.40
2022-10-08T03:44:02.335Z,9.40
2022-10-08T03:46:31.367Z,9.40
2022-10-08T03:49:01.621Z,9.40
2022-10-08T03:51:30.254Z,9.40
2022-10-08T03:53:59.429Z,9.40
2022-10-08T03:56:28.373Z,9.40
2022-10-08T03:58:59.780Z,9.50
2022-10-08T04:01:29.778Z,9.60
2022-10-08T04:03:58.474Z,9.70
2022-10-08T04:06:28.659Z,9.80
2022-10-08T04:09:01.336Z,10.00
2022-10-08T04:11:30.715Z,10.00
2022-10-08T04:13:59.481Z,10.10
2022-10-08T04:16:28.200Z,10.10
2022-10-08T04:18:56.856Z,10.10
2022-10-08T04:21:25.530Z,10.20
2022-10-08T04:23:55.637Z,10.20
2022-10-08T04:26:24.269Z,10.20
2022-10-08T04:28:53.454Z,10.20
2022-10-08T04:31:25.556Z,10.20
2022-10-08T04:33:54.438Z,10.20
2022-10-08T04:36:25.004Z,10.30
2022-10-08T04:38:55.016Z,10.30
2022-10-08T04:41:25.930Z,10.40
2022-10-08T04:43:56.436Z,10.50
2022-10-08T04:46:25.126Z,10.60
2022-10-08T04:48:55.835Z,10.60
2022-10-08T04:51:25.659Z,10.60
2022-10-08T04:53:57.653Z,10.60
2022-10-08T04:56:29.169Z,10.80
2022-10-08T04:58:59.590Z,10.80
2022-10-08T05:01:30.369Z,10.80
2022-10-08T05:04:00.447Z,10.80
2022-10-08T05:06:30.901Z,10.90
2022-10-08T05:09:04.488Z,11.00
2022-10-08T05:11:33.930Z,11.00
2022-10-08T05:14:02.932Z,11.00
2022-10-08T05:16:31.663Z,11.10
2022-10-08T05:19:00.486Z,11.10
2022-10-08T05:21:30.975Z,11.20
2022-10-08T05:24:03.054Z,11.20
2022-10-08T05:29:22.809Z,11.30
2022-10-08T05:31:51.562Z,11.30
2022-10-08T05:34:20.306Z,11.30
2022-10-08T05:36:48.953Z,11.20
2022-10-08T05:39:19.226Z,11.10
2022-10-08T05:41:47.944Z,11.00
2022-10-08T05:44:16.558Z,10.90
2022-10-08T05:46:45.244Z,10.90
2022-10-08T05:49:19.924Z,10.90
2022-10-08T05:51:48.773Z,10.90
2022-10-08T05:54:19.939Z,10.80
2022-10-08T05:56:48.886Z,10.80
2022-10-08T05:59:19.482Z,10.90
2022-10-08T06:01:48.582Z,11.00
2022-10-08T06:04:18.577Z,11.20
2022-10-08T06:06:47.579Z,11.40
2022-10-08T06:09:18.335Z,11.60
2022-10-08T06:11:50.096Z,11.80
2022-10-08T06:14:20.637Z,12.00
2022-10-08T06:16:49.572Z,12.20
2022-10-08T06:19:18.594Z,12.40
2022-10-08T06:21:47.183Z,12.60
2022-10-08T06:24:16.083Z,12.70
2022-10-08T06:26:45.572Z,12.90
2022-10-08T06:29:17.937Z,13.10
2022-10-08T06:31:47.278Z,13.30
2022-10-08T06:34:16.443Z,13.50
2022-10-08T06:36:45.154Z,13.60
2022-10-08T06:39:15.378Z,13.70
2022-10-08T06:41:44.301Z,13.80
2022-10-08T06:44:16.161Z,13.90
2022-10-08T06:46:49.591Z,14.00
2022-10-08T06:49:18.606Z,14.20
2022-10-08T06:51:47.301Z,14.20
2022-10-08T06:54:16.653Z,14.30
2022-10-08T06:56:45.293Z,14.40
2022-10-08T06:59:16.636Z,14.50
2022-10-08T07:01:46.969Z,14.50
2022-10-08T07:04:15.781Z,14.60
2022-10-08T07:06:44.430Z,14.70
2022-10-08T07:09:13.680Z,14.80
2022-10-08T07:11:42.838Z,14.90
2022-10-08T07:14:12.163Z,14.90
2022-10-08T07:16:42.569Z,14.90
2022-10-08T07:19:11.406Z,14.90
2022-10-08T07:21:40.976Z,14.90
2022-10-08T07:24:09.807Z,14.90
2022-10-08T07:26:39.111Z,14.90
2022-10-08T07:29:14.617Z,14.90
2022-10-08T07:31:44.709Z,14.90
2022-10-08T07:34:16.767Z,15.00
2022-10-08T07:36:45.470Z,15.00
2022-10-08T07:39:15.985Z,15.30
2022-10-08T07:41:44.878Z,15.40
2022-10-08T07:44:14.295Z,15.50
2022-10-08T07:46:46.911Z,15.60
2022-10-08T07:49:16.317Z,15.70
2022-10-08T07:51:46.322Z,15.80
2022-10-08T07:54:17.569Z,15.90
2022-10-08T07:56:46.287Z,16.10
2022-10-08T07:59:16.386Z,16.20
2022-10-08T08:01:46.899Z,16.30
2022-10-08T08:04:16.264Z,16.40
2022-10-08T08:06:47.716Z,16.40
2022-10-08T08:09:18.466Z,16.60
2022-10-08T08:11:47.525Z,16.60
2022-10-08T08:14:16.529Z,16.70
2022-10-08T08:16:46.871Z,16.80
2022-10-08T08:19:15.680Z,16.90
2022-10-08T08:21:44.362Z,17.00
2022-10-08T08:24:15.385Z,17.20
2022-10-08T08:26:45.184Z,17.40
2022-10-08T08:29:16.281Z,17.50
2022-10-08T08:31:48.398Z,17.60
2022-10-08T08:34:19.071Z,17.80
2022-10-08T08:36:49.800Z,17.90
2022-10-08T08:39:20.414Z,18.00
2022-10-08T08:42:21.675Z,18.10
2022-10-08T08:44:56.941Z,18.20
2022-10-08T08:47:32.727Z,18.40
2022-10-08T08:50:04.513Z,18.40
2022-10-08T08:52:38.168Z,18.60
2022-10-08T08:55:15.394Z,18.60
2022-10-08T08:57:51.825Z,18.80
2022-10-08T09:00:22.774Z,18.90
2022-10-08T09:02:59.326Z,18.90
2022-10-08T09:05:29.226Z,19.00
2022-10-08T09:08:02.835Z,19.10
2022-10-08T09:10:37.378Z,19.10
2022-10-08T09:13:13.002Z,19.10
2022-10-08T09:15:42.470Z,19.10
2022-10-08T09:18:15.219Z,19.00
2022-10-08T09:20:44.762Z,19.00
2022-10-08T09:23:17.502Z,18.90
2022-10-08T09:25:50.941Z,18.90
2022-10-08T09:28:41.553Z,18.90
2022-10-08T09:31:25.571Z,19.00
2022-10-08T09:34:06.696Z,19.10
2022-10-08T09:36:38.215Z,19.30
2022-10-08T09:39:17.191Z,19.50
2022-10-08T09:41:47.226Z,19.70
2022-10-08T09:44:21.185Z,19.80
2022-10-08T09:47:04.744Z,19.90
2022-10-08T09:49:36.409Z,19.90
2022-10-08T09:52:10.605Z,19.90
2022-10-08T09:54:49.066Z,19.90
2022-10-08T09:57:19.957Z,19.80
2022-10-08T09:59:54.565Z,19.80
2022-10-08T10:02:33.370Z,19.90
2022-10-08T10:05:05.919Z,20.00
2022-10-08T10:07:40.937Z,20.20
2022-10-08T10:10:18.926Z,20.40
2022-10-08T10:12:51.658Z,20.70
2022-10-08T10:15:23.558Z,20.80
2022-10-08T10:17:55.448Z,20.90
2022-10-08T10:20:30.839Z,21.00
2022-10-08T10:23:03.035Z,21.10
2022-10-08T10:25:38.775Z,21.10
2022-10-08T10:28:12.701Z,21.10
2022-10-08T10:30:53.944Z,21.10
2022-10-08T10:33:25.876Z,21.10
2022-10-08T10:36:01.206Z,21.10
2022-10-08T10:38:32.024Z,21.10
2022-10-08T10:41:11.109Z,21.10
2022-10-08T10:43:46.865Z,21.00
2022-10-08T10:46:33.333Z,20.80
2022-10-08T10:49:02.068Z,20.70
2022-10-08T10:51:42.689Z,20.70
2022-10-08T10:54:27.448Z,20.60
2022-10-08T10:57:01.816Z,20.70
2022-10-08T10:59:39.291Z,20.80
2022-10-08T11:02:17.389Z,20.90
2022-10-08T11:04:57.126Z,20.90
2022-10-08T11:07:50.092Z,20.90
2022-10-08T11:10:32.175Z,20.70
2022-10-08T11:13:09.426Z,20.70
2022-10-08T11:15:43.466Z,20.60
2022-10-08T11:18:20.228Z,20.50
2022-10-08T11:21:01.577Z,20.40
2022-10-08T11:23:46.247Z,20.20
2022-10-08T11:26:23.023Z,20.10
2022-10-08T11:29:02.525Z,19.90
2022-10-08T11:31:40.417Z,19.80
2022-10-08T11:34:22.120Z,19.60
2022-10-08T11:37:01.050Z,19.50
2022-10-08T11:39:38.489Z,19.60
2022-10-08T11:42:15.365Z,19.80
2022-10-08T11:44:44.092Z,19.90
2022-10-08T11:47:47.765Z,20.10
2022-10-08T11:50:28.898Z,20.30
2022-10-08T11:53:20.733Z,20.50
2022-10-08T11:55:54.925Z,20.60
2022-10-08T11:58:28.261Z,20.70
2022-10-08T12:01:06.558Z,20.80
2022-10-08T12:03:37.508Z,20.90
2022-10-08T12:06:17.382Z,20.90
2022-10-08T12:08:54.295Z,20.90
2022-10-08T12:11:52.857Z,21.00
2022-10-08T12:14:48.068Z,21.10
2022-10-08T12:17:18.077Z,21.10
2022-10-08T12:20:03.387Z,21.10
2022-10-08T12:23:01.449Z,21.20
2022-10-08T12:25:44.332Z,21.10
2022-10-08T12:28:50.672Z,20.90
2022-10-08T12:31:30.363Z,20.70
2022-10-08T12:34:01.515Z,20.40
2022-10-08T12:36:41.591Z,20.30
2022-10-08T12:39:18.032Z,20.10
2022-10-08T12:41:55.036Z,20.10
2022-10-08T12:44:42.159Z,20.10
2022-10-08T12:47:23.648Z,20.20
2022-10-08T12:49:57.549Z,20.20
2022-10-08T12:52:27.225Z,20.20
2022-10-08T12:54:58.672Z,20.20
2022-10-08T12:57:31.515Z,20.20
2022-10-08T13:00:07.161Z,20.40
2022-10-08T13:02:38.481Z,20.50
2022-10-08T13:05:24.461Z,20.70
2022-10-08T13:07:53.978Z,20.80
2022-10-08T13:10:24.742Z,20.80
2022-10-08T13:13:03.961Z,20.70
2022-10-08T13:15:35.280Z,20.60
2022-10-08T13:18:14.872Z,20.40
2022-10-08T13:20:57.930Z,20.30
2022-10-08T13:23:27.849Z,20.20
2022-10-08T13:25:56.702Z,20.10
2022-10-08T13:28:42.139Z,20.20
2022-10-08T13:31:25.060Z,20.10
2022-10-08T13:33:53.910Z,20.00
2022-10-08T13:36:24.260Z,20.00
2022-10-08T13:38:53.407Z,19.80
2022-10-08T13:41:25.315Z,19.70
2022-10-08T13:43:54.008Z,19.60
2022-10-08T13:46:24.177Z,19.60
2022-10-08T13:48:52.858Z,19.40
2022-10-08T13:51:21.483Z,19.30
2022-10-08T13:53:54.871Z,19.10
2022-10-08T13:56:26.500Z,18.90
2022-10-08T13:58:55.064Z,18.80
2022-10-08T14:01:25.275Z,18.70
2022-10-08T14:03:54.101Z,18.70
2022-10-08T14:06:23.074Z,18.70
2022-10-08T14:08:51.686Z,18.80
2022-10-08T14:11:20.388Z,18.90
2022-10-08T14:13:49.061Z,19.10
2022-10-08T14:16:17.845Z,19.20
2022-10-08T14:18:47.989Z,19.30
2022-10-08T14:21:18.043Z,19.30
2022-10-08T14:23:46.712Z,19.20
2022-10-08T14:26:15.454Z,19.10
2022-10-08T14:28:44.773Z,19.00
2022-10-08T14:31:15.386Z,19.00
2022-10-08T14:33:45.497Z,18.90
2022-10-08T14:36:19.286Z,18.90
2022-10-08T14:38:51.067Z,18.80
2022-10-08T14:41:22.665Z,18.90
2022-10-08T14:43:55.060Z,19.10
2022-10-08T14:46:24.129Z,19.10
2022-10-08T14:48:52.830Z,19.10
2022-10-08T14:51:23.906Z,19.10
2022-10-08T14:53:54.061Z,19.00
2022-10-08T14:56:22.664Z,18.80
2022-10-08T14:58:51.332Z,18.80
2022-10-08T15:01:20.076Z,18.70
2022-10-08T15:03:49.082Z,18.60
2022-10-08T15:06:17.951Z,18.50
2022-10-08T15:08:48.414Z,18.40
2022-10-08T15:11:21.767Z,18.30
2022-10-08T15:13:57.353Z,18.20
2022-10-08T15:16:26.485Z,18.10
2022-10-08T15:18:55.155Z,18.00
2022-10-08T15:21:23.862Z,18.00
2022-10-08T15:23:56.882Z,17.90
2022-10-08T15:26:25.504Z,17.70
2022-10-08T15:28:54.856Z,17.60
2022-10-08T15:31:25.185Z,17.40
2022-10-08T15:33:56.711Z,17.40
2022-10-08T15:36:27.609Z,17.30
2022-10-08T15:38:59.412Z,17.20
2022-10-08T15:41:29.564Z,17.10
2022-10-08T15:44:07.936Z,16.90
2022-10-08T15:46:37.136Z,16.90
2022-10-08T15:49:06.341Z,16.80
2022-10-08T15:51:35.164Z,16.70
2022-10-08T15:54:06.162Z,16.70
2022-10-08T15:56:36.303Z,16.80
2022-10-08T15:59:05.584Z,16.80
2022-10-08T16:01:34.458Z,16.70
2022-10-08T16:04:04.973Z,16.70
2022-10-08T16:06:36.268Z,16.70
2022-10-08T16:09:06.424Z,16.70
2022-10-08T16:11:36.194Z,16.70
2022-10-08T16:14:07.298Z,16.70
2022-10-08T16:16:36.222Z,16.70
2022-10-08T16:19:16.670Z,16.70
2022-10-08T16:21:46.583Z,16.70
2022-10-08T16:24:16.981Z,16.60
2022-10-08T16:26:47.216Z,16.60
2022-10-08T16:29:17.078Z,16.70
2022-10-08T16:31:46.941Z,16.60
2022-10-08T16:34:17.283Z,16.80
2022-10-08T16:36:48.597Z,16.90
2022-10-08T16:39:21.038Z,16.80
2022-10-08T16:41:50.587Z,16.70
2022-10-08T16:44:20.382Z,16.70
2022-10-08T16:46:51.164Z,16.50
2022-10-08T16:49:24.986Z,16.40
2022-10-08T16:51:55.666Z,16.40
2022-10-08T16:54:25.878Z,16.30
2022-10-08T16:56:54.647Z,16.20
2022-10-08T16:59:24.465Z,16.10
2022-10-08T17:01:55.435Z,16.00
2022-10-08T17:04:25.426Z,15.90
2022-10-08T17:06:54.513Z,15.90
2022-10-08T17:09:24.842Z,15.80
2022-10-08T17:11:53.502Z,15.80
2022-10-08T17:14:22.062Z,15.80
2022-10-08T17:16:51.283Z,15.70
2022-10-08T17:19:20.349Z,15.70
2022-10-08T17:21:49.050Z,15.60
2022-10-08T17:24:17.730Z,15.60
2022-10-08T17:26:49.276Z,15.60
2022-10-08T17:29:17.949Z,15.50
2022-10-08T17:31:51.047Z,15.50
2022-10-08T17:34:23.120Z,15.50
2022-10-08T17:36:53.298Z,15.50
2022-10-08T17:39:23.205Z,15.50
2022-10-08T17:42:00.852Z,15.50
2022-10-08T17:44:31.255Z,15.50
2022-10-08T17:46:59.950Z,15.50
2022-10-08T17:49:28.696Z,15.50
2022-10-08T17:51:57.334Z,15.50
2022-10-08T17:54:26.184Z,15.50
2022-10-08T17:56:56.244Z,15.50
2022-10-08T17:59:24.860Z,15.50
2022-10-08T18:01:53.758Z,15.50
2022-10-08T18:04:22.527Z,15.50
2022-10-08T18:06:51.368Z,15.40
2022-10-08T18:09:22.104Z,15.50
2022-10-08T18:11:52.328Z,15.40
2022-10-08T18:14:22.824Z,15.30
2022-10-08T18:16:52.167Z,15.30
2022-10-08T18:19:21.029Z,15.30
2022-10-08T18:21:49.793Z,15.20
2022-10-08T18:24:19.545Z,15.10
2022-10-08T18:26:48.171Z,15.10
2022-10-08T18:29:17.226Z,15.10
2022-10-08T18:31:47.889Z,15.10
2022-10-08T18:34:18.511Z,15.10
2022-10-08T18:36:48.402Z,15.10
2022-10-08T18:39:18.702Z,15.10
2022-10-08T18:41:48.898Z,15.00
2022-10-08T18:44:19.852Z,15.00
2022-10-08T18:46:50.268Z,15.00
2022-10-08T18:49:20.317Z,14.90
2022-10-08T18:51:51.261Z,14.90
2022-10-08T18:54:20.039Z,14.90
2022-10-08T18:56:48.588Z,14.80
2022-10-08T18:59:18.134Z,14.70
2022-10-08T19:01:48.724Z,14.70
2022-10-08T19:04:20.712Z,14.60
2022-10-08T19:06:52.338Z,14.60
2022-10-08T19:09:21.282Z,14.50
2022-10-08T19:11:54.163Z,14.50
2022-10-08T19:14:24.848Z,14.50
2022-10-08T19:16:53.837Z,14.40
2022-10-08T19:19:25.755Z,14.30
2022-10-08T19:21:55.011Z,14.30
2022-10-08T19:24:25.513Z,14.20
2022-10-08T19:26:54.918Z,14.20
2022-10-08T19:29:25.326Z,14.10
2022-10-08T19:31:54.365Z,14.10
2022-10-08T19:34:26.550Z,14.10
2022-10-08T19:36:55.565Z,14.10
2022-10-08T19:39:26.814Z,14.00
2022-10-08T19:41:55.475Z,14.00
2022-10-08T19:44:27.245Z,13.90
2022-10-08T19:46:55.946Z,13.90
2022-10-08T19:49:26.122Z,13.90
2022-10-08T19:51:55.188Z,13.90
2022-10-08T19:54:25.481Z,13.90
2022-10-08T19:56:56.037Z,13.80
2022-10-08T19:59:24.816Z,13.70
2022-10-08T20:01:53.636Z,13.70
2022-10-08T20:04:23.653Z,13.70
2022-10-08T20:06:53.689Z,13.70
2022-10-08T20:09:22.275Z,13.70
2022-10-08T20:11:50.942Z,13.60
2022-10-08T20:14:19.623Z,13.70
2022-10-08T20:16:48.276Z,13.60
2022-10-08T20:19:19.714Z,13.60
2022-10-08T20:21:49.489Z,13.50
2022-10-08T20:24:20.990Z,13.50
2022-10-08T20:26:50.287Z,13.50
2022-10-08T20:29:20.826Z,13.40
2022-10-08T20:31:50.867Z,13.40
2022-10-08T20:34:21.510Z,13.40
2022-10-08T20:36:51.082Z,13.30
2022-10-08T20:39:23.361Z,13.30
2022-10-08T20:41:52.978Z,13.30
2022-10-08T20:44:22.212Z,13.30
2022-10-08T20:46:51.854Z,13.20
2022-10-08T20:49:21.118Z,13.20
2022-10-08T20:51:49.895Z,13.20
2022-10-08T20:54:20.343Z,13.20
2022-10-08T20:56:49.070Z,13.20
2022-10-08T20:59:19.416Z,13.10
2022-10-08T21:01:50.480Z,13.20
2022-10-08T21:04:19.596Z,13.10
2022-10-08T21:06:49.761Z,13.10
2022-10-08T21:09:22.028Z,13.10
2022-10-08T21:11:51.020Z,13.00
2022-10-08T21:14:22.730Z,12.90
2022-10-08T21:16:51.415Z,13.00
2022-10-08T21:19:22.462Z,12.90
2022-10-08T21:21:51.924Z,12.90
2022-10-08T21:24:22.184Z,13.00
2022-10-08T21:26:50.793Z,13.00
2022-10-08T21:29:19.618Z,13.00
2022-10-08T21:31:48.394Z,13.10
2022-10-08T21:34:17.471Z,13.10
2022-10-08T21:36:46.046Z,13.10
2022-10-08T21:39:17.427Z,13.10
2022-10-08T21:41:47.849Z,13.10
2022-10-08T21:44:17.002Z,13.10
2022-10-08T21:46:46.381Z,13.10
2022-10-08T21:49:17.141Z,13.10
2022-10-08T21:51:46.026Z,13.00
2022-10-08T21:54:15.247Z,12.90
2022-10-08T21:56:44.363Z,12.90
2022-10-08T21:59:16.221Z,12.80
2022-10-08T22:01:46.892Z,12.70
2022-10-08T22:04:17.215Z,12.60
2022-10-08T22:06:47.894Z,12.60
2022-10-08T22:09:18.602Z,12.50
2022-10-08T22:11:47.431Z,12.40
2022-10-08T22:14:18.370Z,12.40
2022-10-08T22:16:47.396Z,12.40
2022-10-08T22:19:16.838Z,12.40
2022-10-08T22:21:45.578Z,12.50
2022-10-08T22:24:14.686Z,12.40
2022-10-08T22:26:47.231Z,12.40
2022-10-08T22:29:17.420Z,12.30
2022-10-08T22:31:46.376Z,12.20
2022-10-08T22:34:15.091Z,12.20
2022-10-08T22:36:45.289Z,12.10
2022-10-08T22:39:14.159Z,12.00
2022-10-08T22:41:43.227Z,11.90
2022-10-08T22:44:12.093Z,11.80
2022-10-08T22:46:42.151Z,11.80
2022-10-08T22:49:12.578Z,11.70
2022-10-08T22:51:41.698Z,11.50
2022-10-08T22:54:10.658Z,11.40
2022-10-08T22:56:39.380Z,11.30
2022-10-08T22:59:08.709Z,11.30
2022-10-08T23:01:37.641Z,11.30
2022-10-08T23:04:07.744Z,11.30
2022-10-08T23:06:36.973Z,11.30
2022-10-08T23:09:07.594Z,11.20
2022-10-08T23:11:36.542Z,11.10
2022-10-08T23:14:06.139Z,10.90
2022-10-08T23:16:35.510Z,10.90
2022-10-08T23:19:07.677Z,10.70
2022-10-08T23:21:36.710Z,10.60
2022-10-08T23:24:06.320Z,10.60
2022-10-08T23:26:36.158Z,10.60
2022-10-08T23:29:06.095Z,10.60
2022-10-08T23:31:36.825Z,10.50
2022-10-08T23:34:08.935Z,10.60
2022-10-08T23:36:38.942Z,10.60
2022-10-08T23:39:08.955Z,10.70
2022-10-08T23:41:38.341Z,10.70
2022-10-08T23:44:07.128Z,10.80
2022-10-08T23:46:35.735Z,10.70
2022-10-08T23:49:04.888Z,10.70
2022-10-08T23:51:34.903Z,10.70
2022-10-08T23:54:03.666Z,10.90
2022-10-08T23:56:32.526Z,10.90
2022-10-08T23:59:01.308Z,10.90
